TAF Text Data
IDs:
Format:
Raw Decoded Include METAR

Data at: 0242 UTC 29 Nov 2020

KMKL 282337Z 2900/2924 VRB03KT P6SM OVC200
  FM291500 08003KT P6SM BKN050 OVC120
  FM292000 34008KT P6SM -SHRA SCT020 OVC030